Time;durP1;ratioP1;P1;durP2;ratioP2;P2;SDS_P1;SDS_P2;PMS_P1;PMS_P2;Temp;Humidity;BMP_temperature;BMP_pressure;BME280_temperature;BME280_humidity;BME280_pressure;Samples;Min_cycle;Max_cycle;Signal;HPM_P1;HPM_P2
2023/01/19 04:01:24;;;;;;;4.68;0.80;;;3.50;99.90;;;;;;6004959;23;20023;-83
2023/01/19 04:03:51;;;;;;;4.70;0.63;;;3.50;99.90;;;;;;6044367;23;20018;-82
2023/01/19 04:06:18;;;;;;;5.93;1.00;;;3.50;99.90;;;;;;6046026;23;20011;-81
2023/01/19 04:08:46;;;;;;;8.75;1.58;;;3.50;99.90;;;;;;6045466;23;20011;-83
2023/01/19 04:11:12;;;;;;;6.47;0.80;;;3.50;99.90;;;;;;6033305;23;20030;-84
2023/01/19 04:13:37;;;;;;;10.63;1.45;;;3.60;99.90;;;;;;6041335;23;20087;-82
2023/01/19 04:16:04;;;;;;;8.43;0.90;;;3.60;99.90;;;;;;5992333;23;20015;-80
2023/01/19 04:18:31;;;;;;;7.13;0.88;;;3.60;99.90;;;;;;6016511;23;20450;-83
2023/01/19 04:21:00;;;;;;;7.90;1.45;;;3.60;99.90;;;;;;6016408;23;20048;-81
2023/01/19 04:23:27;;;;;;;11.23;1.10;;;3.60;99.90;;;;;;6041870;23;20019;-84
2023/01/19 04:25:57;;;;;;;11.57;1.40;;;3.70;99.90;;;;;;6016832;23;20033;-82
2023/01/19 04:28:23;;;;;;;12.10;1.15;;;3.70;99.90;;;;;;5992844;23;20026;-81
2023/01/19 04:30:51;;;;;;;8.88;0.93;;;3.70;99.90;;;;;;6041327;23;20011;-82
2023/01/19 04:33:21;;;;;;;12.98;1.80;;;3.70;99.90;;;;;;6041264;23;20011;-80
2023/01/19 04:35:48;;;;;;;16.38;1.83;;;3.70;99.90;;;;;;6041305;23;20015;-82
2023/01/19 04:38:14;;;;;;;14.32;1.73;;;3.80;99.90;;;;;;6016413;23;20034;-84
2023/01/19 04:40:40;;;;;;;15.88;2.00;;;3.80;99.90;;;;;;6041494;23;20015;-82
2023/01/19 04:43:06;;;;;;;14.18;1.40;;;3.80;99.90;;;;;;6016098;23;20042;-82
2023/01/19 04:45:32;;;;;;;15.32;2.03;;;3.80;99.90;;;;;;6016079;23;20031;-80
2023/01/19 04:47:58;;;;;;;16.92;1.45;;;3.80;99.90;;;;;;6016224;23;20019;-81
2023/01/19 04:50:23;;;;;;;11.00;1.20;;;3.90;99.90;;;;;;6041959;23;20314;-82
2023/01/19 04:52:49;;;;;;;14.90;1.90;;;3.90;99.90;;;;;;6016739;23;20026;-81
2023/01/19 04:55:16;;;;;;;15.45;1.42;;;4.00;99.90;;;;;;6016913;23;20399;-81
2023/01/19 04:57:42;;;;;;;9.68;1.27;;;4.00;99.90;;;;;;6016516;23;20382;-81
2023/01/19 05:00:09;;;;;;;8.52;1.30;;;4.10;99.90;;;;;;6041130;23;20023;-81
2023/01/19 05:02:34;;;;;;;5.85;1.10;;;4.10;99.90;;;;;;6041764;23;20138;-82
2023/01/19 05:05:01;;;;;;;7.43;1.35;;;4.10;99.90;;;;;;6016971;23;20323;-83
2023/01/19 05:07:26;;;;;;;8.48;1.58;;;4.10;99.90;;;;;;6016903;23;20015;-83
2023/01/19 05:09:52;;;;;;;7.20;0.88;;;4.00;99.90;;;;;;5993273;23;20012;-83
2023/01/19 05:12:18;;;;;;;7.20;1.00;;;4.00;99.90;;;;;;6042242;23;20022;-83
2023/01/19 05:14:44;;;;;;;10.82;1.17;;;4.00;99.90;;;;;;6016713;23;20023;-83
2023/01/19 05:17:10;;;;;;;7.18;1.60;;;4.00;99.90;;;;;;6042073;23;20046;-80
2023/01/19 05:19:35;;;;;;;5.80;0.88;;;3.90;99.90;;;;;;6016579;23;20098;-82
2023/01/19 05:22:03;;;;;;;7.35;1.00;;;3.90;99.90;;;;;;6018269;23;20022;-83
2023/01/19 05:24:29;;;;;;;5.18;1.05;;;3.80;99.90;;;;;;6019013;23;20023;-82
2023/01/19 05:26:55;;;;;;;10.82;1.15;;;3.80;99.90;;;;;;6018856;23;20410;-84
2023/01/19 05:29:21;;;;;;;9.18;1.08;;;3.80;99.90;;;;;;6018273;23;20342;-82
2023/01/19 05:31:47;;;;;;;10.02;1.40;;;3.70;99.90;;;;;;6018195;23;20318;-81
2023/01/19 05:34:13;;;;;;;6.55;1.25;;;3.70;99.90;;;;;;6019373;23;20011;-83
2023/01/19 05:36:39;;;;;;;6.53;0.73;;;3.60;99.90;;;;;;6018893;23;20015;-85
2023/01/19 05:39:05;;;;;;;14.15;1.33;;;3.60;99.90;;;;;;6043541;23;20034;-81
2023/01/19 05:41:31;;;;;;;8.57;1.38;;;3.50;99.90;;;;;;6044233;23;20015;-82
2023/01/19 05:43:56;;;;;;;4.90;0.90;;;3.50;99.90;;;;;;6044058;23;20129;-81
2023/01/19 05:46:23;;;;;;;6.22;1.00;;;3.50;99.90;;;;;;6018200;23;20086;-80
2023/01/19 05:48:49;;;;;;;3.13;0.65;;;3.40;99.90;;;;;;6018231;23;20015;-77
2023/01/19 05:51:15;;;;;;;5.03;0.85;;;3.40;99.90;;;;;;6043721;23;20273;-83
2023/01/19 05:53:41;;;;;;;11.13;1.50;;;3.30;99.90;;;;;;6018389;23;20015;-84
2023/01/19 05:56:08;;;;;;;11.27;1.13;;;3.30;99.90;;;;;;6018472;23;20059;-82
2023/01/19 05:58:35;;;;;;;6.85;1.00;;;3.30;99.90;;;;;;6043649;23;20063;-82
2023/01/19 06:01:05;;;;;;;12.43;1.10;;;3.20;99.90;;;;;;6018523;23;20019;-82
2023/01/19 06:03:32;;;;;;;5.65;1.10;;;3.20;99.90;;;;;;6019006;23;20019;-85
2023/01/19 06:05:58;;;;;;;12.23;1.60;;;3.20;99.90;;;;;;6018847;23;20019;-83
2023/01/19 06:08:24;;;;;;;10.30;1.77;;;3.20;99.90;;;;;;6017900;23;20026;-80
2023/01/19 06:10:50;;;;;;;8.40;1.80;;;3.10;99.90;;;;;;6043773;23;20015;-81
2023/01/19 06:13:16;;;;;;;6.38;1.60;;;3.10;99.90;;;;;;6018066;23;20031;-80
2023/01/19 06:15:43;;;;;;;8.02;1.42;;;3.10;99.90;;;;;;6018502;23;20015;-78
2023/01/19 06:18:10;;;;;;;12.68;1.63;;;3.10;99.90;;;;;;6018720;23;20012;-79
2023/01/19 06:20:36;;;;;;;9.55;1.90;;;3.20;99.90;;;;;;6018618;23;20501;-82
2023/01/19 06:23:02;;;;;;;15.23;2.35;;;3.20;99.90;;;;;;6018939;23;20441;-83
2023/01/19 06:25:27;;;;;;;13.57;1.58;;;3.20;99.90;;;;;;6044591;23;20018;-80
2023/01/19 06:27:53;;;;;;;16.88;2.25;;;3.20;99.90;;;;;;6018382;23;20398;-83
2023/01/19 06:30:19;;;;;;;12.68;1.52;;;3.30;99.90;;;;;;6018353;23;20011;-81
2023/01/19 06:32:46;;;;;;;9.73;1.40;;;3.30;99.90;;;;;;6018466;23;20058;-82
2023/01/19 06:35:12;;;;;;;13.55;2.20;;;3.30;99.90;;;;;;6018539;23;20022;-80
2023/01/19 06:37:38;;;;;;;14.93;1.60;;;3.30;99.90;;;;;;6018325;23;20022;-82
2023/01/19 06:40:05;;;;;;;19.27;2.97;;;3.40;99.90;;;;;;6044711;23;20019;-83
2023/01/19 06:42:30;;;;;;;13.52;1.75;;;3.40;99.90;;;;;;6016668;23;20015;-82
2023/01/19 06:44:56;;;;;;;13.65;1.90;;;3.40;99.90;;;;;;6043763;23;20022;-82
2023/01/19 06:47:22;;;;;;;12.63;2.72;;;3.50;99.90;;;;;;6017475;23;20015;-80
2023/01/19 06:49:48;;;;;;;16.85;2.15;;;3.50;99.90;;;;;;5994565;23;20011;-82
2023/01/19 06:52:14;;;;;;;12.13;1.63;;;3.50;99.90;;;;;;6043205;23;20390;-82
2023/01/19 06:54:42;;;;;;;10.70;1.70;;;3.50;99.90;;;;;;6018229;23;20052;-82
2023/01/19 06:57:08;;;;;;;14.05;2.03;;;3.50;99.90;;;;;;6017318;23;20015;-84
2023/01/19 06:59:33;;;;;;;20.60;2.50;;;3.50;99.90;;;;;;6042714;23;20040;-83
2023/01/19 07:01:59;;;;;;;14.00;2.22;;;3.40;99.90;;;;;;6017228;23;20027;-83
2023/01/19 07:04:25;;;;;;;9.27;1.58;;;3.40;99.90;;;;;;6017326;23;20102;-81
2023/01/19 07:06:51;;;;;;;15.77;1.42;;;3.50;99.90;;;;;;6016936;23;20445;-81
2023/01/19 07:09:19;;;;;;;17.77;1.85;;;3.50;99.90;;;;;;6017704;23;20070;-83
2023/01/19 07:11:45;;;;;;;10.77;2.08;;;3.40;99.90;;;;;;6018578;23;20034;-84
2023/01/19 07:14:11;;;;;;;12.30;2.30;;;3.40;99.90;;;;;;6043246;23;20058;-83
2023/01/19 07:16:37;;;;;;;18.65;2.00;;;3.30;99.90;;;;;;6018297;23;20094;-82
2023/01/19 07:19:02;;;;;;;16.33;1.75;;;3.40;99.90;;;;;;6018170;23;20026;-81
2023/01/19 07:21:28;;;;;;;12.45;2.88;;;3.30;99.90;;;;;;6017260;23;20019;-81
2023/01/19 07:23:54;;;;;;;11.77;2.00;;;3.30;99.90;;;;;;6042921;23;20063;-81
2023/01/19 07:26:20;;;;;;;14.00;2.40;;;3.30;99.90;;;;;;6016874;23;20019;-82
2023/01/19 07:28:47;;;;;;;10.57;3.00;;;3.30;99.90;;;;;;5993509;23;20011;-81
2023/01/19 07:31:14;;;;;;;13.18;3.28;;;3.30;99.90;;;;;;6041954;23;20398;-82
2023/01/19 07:33:39;;;;;;;23.60;2.72;;;3.30;99.90;;;;;;6043021;23;20019;-83
2023/01/19 07:36:07;;;;;;;19.23;3.58;;;3.30;99.90;;;;;;6017528;23;20071;-86
2023/01/19 07:38:32;;;;;;;16.23;2.70;;;3.30;99.90;;;;;;6045377;23;20026;-82
2023/01/19 07:41:02;;;;;;;19.30;2.30;;;3.40;99.90;;;;;;6045508;23;20015;-86
2023/01/19 07:43:28;;;;;;;13.75;2.05;;;3.40;99.90;;;;;;6037142;23;20027;-78
2023/01/19 07:46:03;;;;;;;15.63;2.50;;;3.40;99.90;;;;;;6003599;23;20019;-81
2023/01/19 07:48:29;;;;;;;15.82;2.22;;;3.40;99.90;;;;;;6043397;23;20088;-79
2023/01/19 07:50:59;;;;;;;19.70;2.67;;;3.40;99.90;;;;;;6043524;23;20023;-82
2023/01/19 07:53:25;;;;;;;12.10;2.70;;;3.40;99.90;;;;;;6016358;23;20303;-80
2023/01/19 07:55:57;;;;;;;14.80;2.00;;;3.50;99.90;;;;;;6041232;23;20349;-75
2023/01/19 07:58:26;;;;;;;11.65;1.42;;;3.50;99.90;;;;;;6041425;23;20058;-78
2023/01/19 08:00:52;;;;;;;9.90;1.67;;;3.50;99.90;;;;;;5992361;23;20019;-76
2023/01/19 08:03:18;;;;;;;16.98;2.20;;;3.60;99.90;;;;;;6042277;23;20007;-80
2023/01/19 08:05:44;;;;;;;14.10;2.30;;;3.60;99.90;;;;;;6015344;23;20015;-79
2023/01/19 08:08:11;;;;;;;22.85;2.92;;;3.60;99.90;;;;;;6016559;23;20026;-82
2023/01/19 08:10:37;;;;;;;13.98;2.08;;;3.70;99.90;;;;;;6016823;23;20019;-82
2023/01/19 08:13:02;;;;;;;11.23;1.88;;;3.70;99.90;;;;;;6016691;23;20091;-80
2023/01/19 08:15:28;;;;;;;12.90;1.75;;;3.60;99.90;;;;;;6016819;23;20086;-77
2023/01/19 08:17:55;;;;;;;24.27;3.47;;;3.60;99.90;;;;;;6016558;23;20015;-81
2023/01/19 08:20:22;;;;;;;17.05;2.08;;;3.60;99.90;;;;;;5992360;23;20098;-82
2023/01/19 08:22:48;;;;;;;13.15;2.38;;;3.60;99.90;;;;;;6015477;23;20461;-79
2023/01/19 08:25:13;;;;;;;10.90;1.60;;;3.60;99.90;;;;;;6016717;23;20019;-77
2023/01/19 08:27:39;;;;;;;13.27;2.10;;;3.50;99.90;;;;;;6016654;23;20026;-83
2023/01/19 08:30:08;;;;;;;16.60;1.88;;;3.50;99.90;;;;;;6017092;23;20041;-85
2023/01/19 08:32:34;;;;;;;15.88;1.85;;;3.50;99.90;;;;;;6016055;23;20015;-78
2023/01/19 08:35:00;;;;;;;8.68;1.98;;;3.40;99.90;;;;;;6016986;23;20346;-84
2023/01/19 08:37:26;;;;;;;9.10;1.50;;;3.50;99.90;;;;;;6017169;23;20043;-83
2023/01/19 08:39:52;;;;;;;10.05;1.63;;;3.40;99.90;;;;;;6016423;23;20437;-83
2023/01/19 08:42:18;;;;;;;10.45;1.83;;;3.40;99.90;;;;;;5993944;23;20015;-82
2023/01/19 08:44:44;;;;;;;14.77;2.00;;;3.40;99.90;;;;;;6041551;23;20311;-83
2023/01/19 08:47:09;;;;;;;15.73;2.15;;;3.40;99.90;;;;;;5992410;23;20026;-81
2023/01/19 08:49:35;;;;;;;7.95;1.77;;;3.40;99.90;;;;;;6016370;23;20015;-83
2023/01/19 08:52:01;;;;;;;15.63;1.90;;;3.40;99.90;;;;;;6016210;23;20379;-78
2023/01/19 08:54:27;;;;;;;10.57;2.38;;;3.30;99.90;;;;;;6016331;23;20079;-78
2023/01/19 08:56:53;;;;;;;16.65;2.45;;;3.30;99.90;;;;;;6041452;23;20011;-82
2023/01/19 08:59:19;;;;;;;15.23;2.90;;;3.30;99.90;;;;;;6015946;23;20019;-82
2023/01/19 09:01:44;;;;;;;20.73;2.88;;;3.30;99.90;;;;;;6016080;23;20146;-77
2023/01/19 09:04:10;;;;;;;13.93;2.67;;;3.30;99.90;;;;;;6016576;23;20058;-80
2023/01/19 09:06:36;;;;;;;12.13;1.92;;;3.30;99.90;;;;;;6016238;23;20015;-82
2023/01/19 09:09:01;;;;;;;15.20;2.22;;;3.30;99.90;;;;;;6016407;23;20011;-80
2023/01/19 09:11:27;;;;;;;13.07;1.98;;;3.40;99.90;;;;;;5993005;23;20019;-78
2023/01/19 09:13:53;;;;;;;15.30;2.15;;;3.50;99.90;;;;;;6016085;23;20011;-82
2023/01/19 09:16:19;;;;;;;17.23;2.00;;;3.60;99.90;;;;;;6041681;23;20047;-81
2023/01/19 09:18:45;;;;;;;13.88;2.10;;;3.70;99.90;;;;;;6016167;23;20468;-79
2023/01/19 09:21:12;;;;;;;17.52;2.72;;;3.70;99.90;;;;;;6042701;23;20041;-81
2023/01/19 09:23:38;;;;;;;17.63;2.97;;;3.80;99.90;;;;;;6016802;23;20023;-81
2023/01/19 09:26:05;;;;;;;8.95;1.80;;;3.80;99.90;;;;;;6043339;23;20054;-80
2023/01/19 09:28:31;;;;;;;12.32;1.90;;;3.90;99.90;;;;;;6041158;23;20015;-79
2023/01/19 09:30:58;;;;;;;8.43;1.50;;;3.90;99.90;;;;;;6042214;23;20038;-82
2023/01/19 09:33:23;;;;;;;10.35;1.70;;;4.00;99.90;;;;;;6016426;23;20019;-78
2023/01/19 09:35:50;;;;;;;11.82;2.60;;;4.00;99.90;;;;;;6016539;23;20042;-80
2023/01/19 09:38:17;;;;;;;11.45;2.03;;;4.00;99.90;;;;;;6016946;23;20023;-81
2023/01/19 09:40:48;;;;;;;13.75;1.63;;;4.10;99.90;;;;;;5993193;23;20070;-82
2023/01/19 09:43:19;;;;;;;12.75;2.20;;;4.10;99.90;;;;;;6042018;23;20023;-79
2023/01/19 09:45:52;;;;;;;19.77;1.63;;;4.10;99.90;;;;;;6016435;23;20021;-79
2023/01/19 09:48:30;;;;;;;16.83;3.38;;;4.20;99.90;;;;;;5993193;23;20035;-78
2023/01/19 09:51:01;;;;;;;14.20;2.25;;;4.20;99.90;;;;;;5992728;23;20023;-80
2023/01/19 09:53:55;;;;;;;10.52;1.95;;;4.20;99.90;;;;;;6016523;23;20019;-83
2023/01/19 09:56:22;;;;;;;15.52;1.55;;;4.30;99.90;;;;;;6041510;23;20022;-78
2023/01/19 09:58:49;;;;;;;11.75;1.90;;;4.40;99.90;;;;;;6016528;23;20023;-83
2023/01/19 10:01:22;;;;;;;16.58;2.28;;;4.40;99.90;;;;;;6016476;23;20074;-81
2023/01/19 10:03:53;;;;;;;13.60;2.05;;;4.50;99.90;;;;;;6016979;23;20421;-79
2023/01/19 10:06:18;;;;;;;16.38;2.40;;;4.60;99.90;;;;;;5993684;23;20015;-78
2023/01/19 10:09:07;;;;;;;18.75;3.13;;;4.60;99.90;;;;;;6043199;23;20083;-78
2023/01/19 10:11:39;;;;;;;22.98;3.92;;;4.70;99.90;;;;;;6016741;23;20019;-79
2023/01/19 10:14:17;;;;;;;14.52;1.50;;;4.80;99.90;;;;;;6017816;23;20098;-82
2023/01/19 10:16:59;;;;;;;11.25;1.92;;;4.90;99.90;;;;;;6017692;23;20015;-79
2023/01/19 10:19:32;;;;;;;10.00;1.52;;;5.00;99.90;;;;;;6043187;23;20055;-80
2023/01/19 10:22:02;;;;;;;11.20;1.75;;;5.00;99.90;;;;;;5993721;23;20026;-80
2023/01/19 10:24:43;;;;;;;12.85;1.88;;;5.10;99.90;;;;;;6017826;23;20030;-79
2023/01/19 10:27:17;;;;;;;9.48;1.55;;;5.20;99.90;;;;;;6016961;23;20019;-79
2023/01/19 10:29:44;;;;;;;15.25;2.05;;;5.30;99.90;;;;;;6016694;23;20525;-82
2023/01/19 10:32:25;;;;;;;14.32;1.95;;;5.40;99.90;;;;;;6017293;23;20349;-80
2023/01/19 10:34:52;;;;;;;15.70;2.05;;;5.60;99.90;;;;;;6042605;23;20018;-82
2023/01/19 10:37:31;;;;;;;11.80;1.55;;;5.70;99.90;;;;;;6017322;23;20096;-80
2023/01/19 10:40:08;;;;;;;9.52;1.40;;;5.80;99.90;;;;;;6042684;23;20311;-78
2023/01/19 10:42:34;;;;;;;11.05;2.00;;;5.80;99.90;;;;;;6017495;23;20021;-80
2023/01/19 10:45:00;;;;;;;7.97;1.83;;;5.90;99.90;;;;;;6043004;23;20047;-80
2023/01/19 10:47:38;;;;;;;5.85;1.17;;;5.90;99.90;;;;;;6043309;23;20086;-77
2023/01/19 10:50:26;;;;;;;12.73;2.00;;;6.00;99.90;;;;;;6017956;23;20011;-78
2023/01/19 10:53:00;;;;;;;18.38;2.45;;;6.00;99.90;;;;;;6017390;23;20019;-79
2023/01/19 10:55:33;;;;;;;8.23;1.85;;;6.10;99.90;;;;;;6017274;23;20091;-78
2023/01/19 10:57:59;;;;;;;10.38;1.40;;;6.20;99.90;;;;;;6017407;23;20054;-81
2023/01/19 11:00:36;;;;;;;5.18;1.30;;;6.30;99.90;;;;;;6017284;23;20349;-80
2023/01/19 11:03:03;;;;;;;7.70;1.30;;;6.40;99.90;;;;;;6015890;23;20077;-81
2023/01/19 11:05:31;;;;;;;10.93;2.03;;;6.50;99.90;;;;;;6016036;23;20026;-78
2023/01/19 11:07:57;;;;;;;9.20;1.73;;;6.60;99.90;;;;;;6016083;23;20019;-79
2023/01/19 11:10:28;;;;;;;11.15;1.40;;;6.50;99.90;;;;;;5992449;23;20019;-79
2023/01/19 11:13:11;;;;;;;8.75;1.15;;;6.60;99.90;;;;;;6041418;23;20015;-79
2023/01/19 11:15:39;;;;;;;11.45;1.92;;;6.60;99.90;;;;;;5992462;23;20011;-76
2023/01/19 11:18:05;;;;;;;8.55;1.00;;;6.70;99.90;;;;;;5992026;23;20057;-79
2023/01/19 11:20:49;;;;;;;8.25;1.40;;;6.80;99.90;;;;;;6015726;23;20501;-75
2023/01/19 11:23:23;;;;;;;10.27;1.90;;;6.70;99.90;;;;;;6015863;23;20102;-78
2023/01/19 11:25:50;;;;;;;9.75;1.38;;;6.50;99.90;;;;;;6015896;23;20019;-81
2023/01/19 11:28:19;;;;;;;8.02;1.67;;;6.30;99.90;;;;;;6015943;23;20019;-78
2023/01/19 11:30:56;;;;;;;7.50;1.40;;;6.20;99.90;;;;;;6041039;23;20445;-77
2023/01/19 11:33:32;;;;;;;10.10;1.27;;;6.20;99.90;;;;;;6016085;23;20078;-78
2023/01/19 11:36:05;;;;;;;11.90;1.80;;;6.30;99.90;;;;;;6041843;23;20047;-77
2023/01/19 11:38:31;;;;;;;13.52;1.42;;;6.30;99.90;;;;;;6041272;23;20019;-82
2023/01/19 11:40:58;;;;;;;9.60;1.42;;;6.40;99.90;;;;;;6015512;23;20058;-77
2023/01/19 11:43:27;;;;;;;9.85;1.58;;;6.50;99.90;;;;;;6015594;23;20038;-78
2023/01/19 11:45:55;;;;;;;11.75;1.20;;;6.50;99.90;;;;;;6016093;23;20011;-81
2023/01/19 11:48:31;;;;;;;12.63;1.38;;;6.60;99.90;;;;;;5992040;23;20012;-81
2023/01/19 11:50:59;;;;;;;;;;;6.70;99.90;;;;;;6015733;23;20287;-78
2023/01/19 11:53:29;;;;;;;5.70;1.00;;;6.70;99.90;;;;;;6015304;23;19937;-80
2023/01/19 11:56:03;;;;;;;9.52;1.10;;;6.80;99.90;;;;;;6015100;23;20015;-78
2023/01/19 11:58:30;;;;;;;9.82;1.50;;;7.00;99.90;;;;;;6015617;23;20012;-82
2023/01/19 12:01:02;;;;;;;7.43;1.35;;;7.10;99.90;;;;;;5927692;23;2116690;-83
2023/01/19 12:03:45;;;;;;;5.85;0.90;;;7.10;99.90;;;;;;6041686;23;20043;-81
2023/01/19 12:06:18;;;;;;;7.88;1.33;;;7.10;99.90;;;;;;6041793;23;20011;-80
2023/01/19 12:08:56;;;;;;;5.95;1.50;;;7.10;99.90;;;;;;6042078;23;20015;-81
2023/01/19 12:11:45;;;;;;;7.95;0.98;;;7.20;99.90;;;;;;6016523;23;20019;-78
2023/01/19 12:14:30;;;;;;;8.63;1.67;;;7.10;99.90;;;;;;6040526;23;20084;-80
2023/01/19 12:16:59;;;;;;;9.07;1.25;;;7.20;99.90;;;;;;6016811;23;20091;-81
2023/01/19 12:19:34;;;;;;;7.05;1.27;;;7.30;99.90;;;;;;6042616;23;20021;-79
2023/01/19 12:22:01;;;;;;;4.57;1.30;;;7.40;99.90;;;;;;6017314;23;20023;-80
2023/01/19 12:24:47;;;;;;;5.20;0.98;;;7.30;99.90;;;;;;6044140;23;20418;-79
2023/01/19 12:27:22;;;;;;;6.93;1.33;;;7.30;99.90;;;;;;6026019;23;20019;-75
2023/01/19 12:29:49;;;;;;;8.13;1.55;;;7.30;99.90;;;;;;6029074;23;20019;-77
2023/01/19 12:32:16;;;;;;;6.75;1.00;;;7.30;99.90;;;;;;5998262;23;20011;-80
2023/01/19 12:34:50;;;;;;;6.63;1.45;;;7.30;99.90;;;;;;5993271;23;20015;-79
2023/01/19 12:37:36;;;;;;;5.03;0.98;;;7.40;99.90;;;;;;6016818;23;20015;-81
2023/01/19 12:40:02;;;;;;;;;;;7.40;99.90;;;;;;6017046;23;20346;-79
2023/01/19 12:42:28;;;;;;;10.65;1.35;;;7.50;99.90;;;;;;6016440;23;19938;-81
2023/01/19 12:45:07;;;;;;;6.97;1.13;;;7.20;99.90;;;;;;6015937;23;20101;-81
2023/01/19 12:47:33;;;;;;;10.50;1.48;;;6.90;99.90;;;;;;6016260;23;20019;-77
2023/01/19 12:50:05;;;;;;;6.10;0.80;;;6.50;99.90;;;;;;6015693;23;20347;-84
2023/01/19 12:53:01;;;;;;;5.72;0.90;;;6.30;99.90;;;;;;5993098;23;20020;-84
2023/01/19 12:55:36;;;;;;;6.90;1.00;;;6.20;99.90;;;;;;5993141;23;20095;-80
2023/01/19 12:58:06;;;;;;;9.65;1.25;;;6.00;99.90;;;;;;6039898;23;20016;-79
2023/01/19 13:00:41;;;;;;;7.13;1.25;;;6.00;99.90;;;;;;6016126;23;20054;-78
2023/01/19 13:03:16;;;;;;;3.63;0.82;;;6.20;99.90;;;;;;6016308;23;20059;-83
2023/01/19 13:05:41;;;;;;;6.60;1.07;;;6.40;99.90;;;;;;6016307;23;20015;-80
2023/01/19 13:08:07;;;;;;;11.80;2.65;;;6.60;99.90;;;;;;6041859;23;20240;-82
2023/01/19 13:10:52;;;;;;;7.82;1.05;;;6.70;99.90;;;;;;5992590;23;20035;-78
2023/01/19 13:13:23;;;;;;;10.50;1.48;;;6.70;99.90;;;;;;6016607;23;20022;-81
2023/01/19 13:15:49;;;;;;;7.28;1.17;;;6.80;99.90;;;;;;6017100;23;20022;-79
2023/01/19 13:18:25;;;;;;;9.00;1.58;;;6.90;99.90;;;;;;6017323;23;20092;-78
2023/01/19 13:21:01;;;;;;;7.70;1.20;;;7.00;99.90;;;;;;6016167;23;20007;-79
2023/01/19 13:23:50;;;;;;;5.68;0.70;;;7.20;99.90;;;;;;6016390;23;20052;-83
2023/01/19 13:26:21;;;;;;;2.53;0.60;;;7.20;99.90;;;;;;6016145;23;20352;-79
2023/01/19 13:28:50;;;;;;;2.08;0.40;;;7.20;99.90;;;;;;6015727;23;20019;-81
2023/01/19 13:31:18;;;;;;;2.03;0.47;;;7.20;99.90;;;;;;6016503;23;20092;-80
2023/01/19 13:33:54;;;;;;;1.30;0.25;;;7.00;99.90;;;;;;6016210;23;20393;-82
2023/01/19 13:36:32;;;;;;;3.72;0.60;;;6.90;99.90;;;;;;6016112;23;20016;-84
2023/01/19 13:39:02;;;;;;;2.47;0.50;;;7.00;99.90;;;;;;6016411;23;20341;-84
2023/01/19 13:41:31;;;;;;;4.40;0.70;;;7.00;99.90;;;;;;6042196;23;20079;-81
2023/01/19 13:44:02;;;;;;;4.63;0.65;;;6.70;99.90;;;;;;6018100;23;20030;-83
2023/01/19 13:46:29;;;;;;;4.30;0.50;;;6.40;99.90;;;;;;6018322;23;20442;-81
2023/01/19 13:48:58;;;;;;;5.80;0.77;;;6.10;99.90;;;;;;6018177;23;20063;-80
2023/01/19 13:51:24;;;;;;;5.28;0.73;;;5.90;99.90;;;;;;6017852;23;20098;-82
2023/01/19 13:53:55;;;;;;;5.22;1.42;;;5.80;99.90;;;;;;6018126;23;20342;-85
2023/01/19 13:56:22;;;;;;;7.35;1.00;;;5.60;99.90;;;;;;6017251;23;20015;-80
2023/01/19 13:59:03;;;;;;;2.60;0.63;;;5.60;99.90;;;;;;6019464;23;20022;-82
2023/01/19 14:01:30;;;;;;;4.30;1.27;;;5.70;99.90;;;;;;6017735;23;20043;-82
2023/01/19 14:03:56;;;;;;;5.55;1.15;;;5.70;99.90;;;;;;6018019;23;20039;-82
2023/01/19 14:06:33;;;;;;;8.40;1.10;;;5.70;99.90;;;;;;6017974;23;20015;-81
2023/01/19 14:09:16;;;;;;;7.32;1.20;;;5.70;99.90;;;;;;6043117;23;20054;-82
2023/01/19 14:11:43;;;;;;;6.20;0.85;;;5.60;99.90;;;;;;6042949;23;20154;-82
2023/01/19 14:14:26;;;;;;;4.28;1.00;;;5.60;99.90;;;;;;6017611;23;20398;-82
2023/01/19 14:16:52;;;;;;;9.30;1.15;;;5.50;99.90;;;;;;6017575;23;20445;-83
2023/01/19 14:19:18;;;;;;;7.40;2.00;;;5.60;99.90;;;;;;6017549;23;20019;-82
2023/01/19 14:21:44;;;;;;;12.95;2.08;;;5.50;99.90;;;;;;6017259;23;20030;-81
2023/01/19 14:24:19;;;;;;;7.30;1.38;;;5.50;99.90;;;;;;6017839;23;20376;-83
2023/01/19 14:26:53;;;;;;;5.13;1.40;;;5.40;99.90;;;;;;6043224;23;20019;-84
2023/01/19 14:29:31;;;;;;;8.90;1.65;;;5.40;99.90;;;;;;5994073;23;20020;-82
2023/01/19 14:31:59;;;;;;;6.82;1.77;;;5.30;99.90;;;;;;6017935;23;20008;-81
2023/01/19 14:34:37;;;;;;;9.65;1.80;;;5.30;99.90;;;;;;6017870;23;20050;-83
2023/01/19 14:37:15;;;;;;;7.82;1.77;;;5.30;99.90;;;;;;6018231;23;20066;-83
2023/01/19 14:39:45;;;;;;;14.05;2.92;;;5.40;99.90;;;;;;6018517;23;20148;-79
2023/01/19 14:42:15;;;;;;;8.15;1.50;;;5.30;99.90;;;;;;6017269;23;20345;-84
2023/01/19 14:44:46;;;;;;;9.05;1.85;;;5.30;99.90;;;;;;5994909;23;20015;-81
2023/01/19 14:47:29;;;;;;;10.85;1.73;;;5.30;99.90;;;;;;6017251;23;20019;-82
2023/01/19 14:49:59;;;;;;;14.68;2.13;;;5.20;99.90;;;;;;6042926;23;20015;-79
2023/01/19 14:52:28;;;;;;;9.45;1.60;;;5.20;99.90;;;;;;6016816;23;20051;-77
2023/01/19 14:54:56;;;;;;;10.20;2.40;;;5.20;99.90;;;;;;6042856;23;20438;-82
2023/01/19 14:57:22;;;;;;;11.48;2.38;;;5.10;99.90;;;;;;6042173;23;20012;-79
2023/01/19 14:59:49;;;;;;;12.23;2.20;;;5.10;99.90;;;;;;6016641;23;20031;-76
2023/01/19 15:02:17;;;;;;;10.32;1.52;;;5.10;99.90;;;;;;6015907;23;20021;-78
2023/01/19 15:04:45;;;;;;;10.57;2.15;;;5.00;99.90;;;;;;6016066;23;20019;-78
2023/01/19 15:07:17;;;;;;;15.60;3.55;;;5.10;99.90;;;;;;6041772;23;20026;-77
2023/01/19 15:09:43;;;;;;;7.50;2.20;;;5.00;99.90;;;;;;6041071;23;20083;-78
2023/01/19 15:12:12;;;;;;;8.02;1.88;;;5.00;99.90;;;;;;6015718;23;20077;-78
2023/01/19 15:14:37;;;;;;;8.93;1.95;;;4.90;99.90;;;;;;6016862;23;20106;-78
2023/01/19 15:17:03;;;;;;;12.45;2.80;;;4.90;99.90;;;;;;6016527;23;20019;-79
2023/01/19 15:19:29;;;;;;;15.70;2.47;;;4.90;99.90;;;;;;6015481;23;20047;-78
2023/01/19 15:21:54;;;;;;;9.13;2.38;;;4.80;99.90;;;;;;6016245;23;20025;-77
2023/01/19 15:24:20;;;;;;;10.73;2.00;;;4.70;99.90;;;;;;6040605;23;20050;-77
2023/01/19 15:26:45;;;;;;;26.38;7.57;;;4.70;99.90;;;;;;6016134;23;20354;-75
2023/01/19 15:29:22;;;;;;;17.17;5.22;;;4.70;99.90;;;;;;6041733;23;20397;-78
2023/01/19 15:31:48;;;;;;;14.10;3.58;;;4.60;99.90;;;;;;6016360;23;20386;-78
2023/01/19 15:34:14;;;;;;;8.32;2.10;;;4.60;99.90;;;;;;6016397;23;20015;-80
2023/01/19 15:36:40;;;;;;;11.05;2.40;;;4.60;99.90;;;;;;6016164;23;20042;-80
2023/01/19 15:39:06;;;;;;;18.70;5.47;;;4.60;99.90;;;;;;6016157;23;20387;-82
2023/01/19 15:41:32;;;;;;;8.35;1.80;;;4.50;99.90;;;;;;6016536;23;20074;-80
2023/01/19 15:43:57;;;;;;;8.57;2.22;;;4.50;99.90;;;;;;6015993;23;20016;-82
2023/01/19 15:46:24;;;;;;;12.45;3.38;;;4.40;99.90;;;;;;6015905;23;20047;-79
2023/01/19 15:48:51;;;;;;;13.70;2.95;;;4.40;99.90;;;;;;6015812;23;20020;-76
2023/01/19 15:51:19;;;;;;;11.48;2.78;;;4.30;99.90;;;;;;6015828;23;20049;-77
2023/01/19 15:53:46;;;;;;;10.65;2.72;;;4.20;99.90;;;;;;6015897;23;20528;-76
2023/01/19 15:56:19;;;;;;;10.88;2.40;;;4.20;99.90;;;;;;6016138;23;20038;-77
2023/01/19 15:58:46;;;;;;;18.77;5.15;;;4.10;99.90;;;;;;5993274;23;20019;-77
2023/01/19 16:01:20;;;;;;;41.85;11.05;;;4.10;99.90;;;;;;6015663;23;20115;-80
2023/01/19 16:03:46;;;;;;;19.23;5.25;;;4.00;99.90;;;;;;5992058;23;20015;-76
2023/01/19 16:06:12;;;;;;;10.48;3.20;;;4.00;99.90;;;;;;6040887;23;20013;-77
2023/01/19 16:08:39;;;;;;;11.40;3.75;;;4.00;99.90;;;;;;6040663;23;20007;-75
2023/01/19 16:11:15;;;;;;;11.48;3.13;;;3.90;99.90;;;;;;5991327;23;20019;-80
2023/01/19 16:13:44;;;;;;;11.45;3.42;;;3.90;99.90;;;;;;6014832;23;20012;-79
2023/01/19 16:16:21;;;;;;;16.95;2.92;;;3.80;99.90;;;;;;6039937;23;20016;-79
2023/01/19 16:18:47;;;;;;;9.93;2.00;;;3.80;99.90;;;;;;5991570;23;20071;-77
2023/01/19 16:21:12;;;;;;;6.32;1.45;;;3.80;99.90;;;;;;6015108;23;20446;-80
2023/01/19 16:23:38;;;;;;;9.82;2.47;;;3.80;99.90;;;;;;5992769;23;20046;-78
2023/01/19 16:26:07;;;;;;;8.50;2.30;;;3.70;99.90;;;;;;6015483;23;20022;-79
2023/01/19 16:28:34;;;;;;;9.02;2.15;;;3.70;99.90;;;;;;6040397;23;20011;-77
2023/01/19 16:31:00;;;;;;;8.93;2.95;;;3.70;99.90;;;;;;6015316;23;20087;-77
2023/01/19 16:33:25;;;;;;;10.40;2.38;;;3.70;99.90;;;;;;6015246;23;20022;-78
2023/01/19 16:35:52;;;;;;;11.85;2.38;;;3.60;99.90;;;;;;6040367;23;20011;-78
2023/01/19 16:38:17;;;;;;;7.80;1.92;;;3.60;99.90;;;;;;6014883;23;20021;-78
2023/01/19 16:40:44;;;;;;;5.35;1.48;;;3.60;99.90;;;;;;5991265;23;20341;-77
2023/01/19 16:43:10;;;;;;;7.15;2.22;;;3.50;99.90;;;;;;6014907;23;20063;-78
2023/01/19 16:45:57;;;;;;;14.68;1.80;;;3.50;99.90;;;;;;6015194;23;20019;-76
2023/01/19 16:48:23;;;;;;;9.02;2.38;;;3.40;99.90;;;;;;6014657;23;20019;-76
2023/01/19 16:51:02;;;;;;;7.18;1.45;;;3.40;99.90;;;;;;6014653;23;20489;-78
2023/01/19 16:53:28;;;;;;;5.88;1.30;;;3.30;99.90;;;;;;6014938;23;20075;-80
2023/01/19 16:55:54;;;;;;;9.35;1.50;;;3.30;99.90;;;;;;6041407;23;20363;-77
2023/01/19 16:58:20;;;;;;;8.77;1.52;;;3.30;99.90;;;;;;6014755;23;20015;-78
2023/01/19 17:00:46;;;;;;;6.80;1.80;;;3.20;99.90;;;;;;5984963;23;20016;-79
2023/01/19 17:03:12;;;;;;;12.07;2.38;;;3.20;99.90;;;;;;6011698;23;20016;-77